createdAt,value
2023-03-31T00:00:13.100Z,47.61
2023-03-31T00:01:15.204Z,47.57
2023-03-31T00:02:17.768Z,47.42
2023-03-31T00:03:21.001Z,47.12
2023-03-31T00:04:23.823Z,47.22
2023-03-31T00:05:26.349Z,47.23
2023-03-31T00:06:29.721Z,46.99
2023-03-31T00:07:31.851Z,46.73
2023-03-31T00:08:34.239Z,46.45
2023-03-31T00:09:36.823Z,46.75
2023-03-31T00:10:42.557Z,46.57
2023-03-31T00:11:45.173Z,46.50
2023-03-31T00:12:47.356Z,46.50
2023-03-31T00:13:49.751Z,46.63
2023-03-31T00:14:51.868Z,46.65
2023-03-31T00:16:06.598Z,46.45
2023-03-31T00:17:09.939Z,46.57
2023-03-31T00:18:12.296Z,46.66
2023-03-31T00:19:14.458Z,46.62
2023-03-31T00:20:17.034Z,46.81
2023-03-31T00:22:31.581Z,46.99
2023-03-31T00:23:33.716Z,46.92
2023-03-31T00:24:36.211Z,46.51
2023-03-31T00:25:42.057Z,46.42
2023-03-31T00:26:44.273Z,46.29
2023-03-31T00:27:46.698Z,46.55
2023-03-31T00:28:50.209Z,46.62
2023-03-31T00:29:52.518Z,46.51
2023-03-31T00:30:58.468Z,46.39
2023-03-31T00:32:01.067Z,46.02
2023-03-31T00:33:03.500Z,46.04
2023-03-31T00:34:06.873Z,46.18
2023-03-31T00:35:09.397Z,46.32
2023-03-31T00:36:12.628Z,46.36
2023-03-31T00:37:14.929Z,46.17
2023-03-31T00:38:18.100Z,46.20
2023-03-31T00:39:20.532Z,45.92
2023-03-31T00:40:23.236Z,45.93
2023-03-31T00:41:29.221Z,45.82
2023-03-31T00:42:31.439Z,45.72
2023-03-31T00:43:36.311Z,45.50
2023-03-31T00:46:21.813Z,45.32
2023-03-31T00:47:25.333Z,45.23
2023-03-31T00:48:27.576Z,45.31
2023-03-31T00:50:54.704Z,45.45
2023-03-31T00:53:12.647Z,45.01
2023-03-31T00:54:16.285Z,44.84
2023-03-31T00:55:21.997Z,45.06
2023-03-31T00:56:24.846Z,45.13
2023-03-31T00:57:28.322Z,45.35
2023-03-31T00:58:31.809Z,45.22
2023-03-31T01:00:53.805Z,45.43
2023-03-31T01:01:57.219Z,45.46
2023-03-31T01:03:03.428Z,45.41
2023-03-31T01:04:06.344Z,45.56
2023-03-31T01:05:09.196Z,45.29
2023-03-31T01:06:13.238Z,45.22
2023-03-31T01:07:37.348Z,45.28
2023-03-31T01:08:40.367Z,45.36
2023-03-31T01:09:44.907Z,45.47
2023-03-31T01:10:50.943Z,45.69
2023-03-31T01:11:53.414Z,45.76
2023-03-31T01:12:57.107Z,45.78
2023-03-31T01:13:59.482Z,45.86
2023-03-31T01:15:04.338Z,45.89
2023-03-31T01:16:07.034Z,45.65
2023-03-31T01:17:09.937Z,45.68
2023-03-31T01:18:14.350Z,45.57
2023-03-31T01:19:20.738Z,45.68
2023-03-31T01:20:38.922Z,45.71
2023-03-31T01:23:42.131Z,45.81
2023-03-31T01:25:05.505Z,45.72
2023-03-31T01:26:33.239Z,45.56
2023-03-31T01:27:48.715Z,45.44
2023-03-31T01:28:57.296Z,45.49
2023-03-31T01:31:38.388Z,45.40
2023-03-31T01:32:45.381Z,45.31
2023-03-31T01:34:06.523Z,45.14
2023-03-31T01:35:27.998Z,45.26
2023-03-31T01:36:51.834Z,45.27
2023-03-31T01:38:20.936Z,45.34
2023-03-31T01:39:43.681Z,45.29
2023-03-31T01:41:08.254Z,45.39
2023-03-31T01:42:35.759Z,45.51
2023-03-31T01:43:52.411Z,45.66
2023-03-31T01:46:26.844Z,45.53
2023-03-31T01:47:38.649Z,45.54
2023-03-31T01:48:47.313Z,45.87
2023-03-31T01:50:10.672Z,45.75
2023-03-31T01:51:22.648Z,45.75
2023-03-31T01:52:45.428Z,45.87
2023-03-31T01:53:57.485Z,45.95
2023-03-31T01:55:03.346Z,46.23
2023-03-31T01:56:09.594Z,46.33
2023-03-31T01:57:18.489Z,46.25
2023-03-31T01:59:49.634Z,46.12
2023-03-31T02:01:01.635Z,46.39
2023-03-31T02:02:14.286Z,46.18
2023-03-31T02:03:20.572Z,46.37
2023-03-31T02:04:32.323Z,46.53
2023-03-31T02:06:50.576Z,46.60
2023-03-31T02:07:58.954Z,46.61
2023-03-31T02:09:08.032Z,46.62
2023-03-31T02:10:12.975Z,46.87
2023-03-31T02:11:16.217Z,47.01
2023-03-31T02:12:20.706Z,47.29
2023-03-31T02:13:25.244Z,47.57
2023-03-31T02:14:29.762Z,47.76
2023-03-31T02:16:47.444Z,48.05
2023-03-31T02:17:53.314Z,48.39
2023-03-31T02:18:57.960Z,48.51
2023-03-31T02:21:14.210Z,48.63
2023-03-31T02:22:20.188Z,48.87
2023-03-31T02:23:25.901Z,49.04
2023-03-31T02:24:30.472Z,48.90
2023-03-31T02:25:36.098Z,49.05
2023-03-31T02:31:26.376Z,49.37
2023-03-31T02:32:39.802Z,49.41
2023-03-31T02:33:42.200Z,49.34
2023-03-31T02:34:45.514Z,49.39
2023-03-31T02:35:48.207Z,49.42
2023-03-31T02:36:50.334Z,49.58
2023-03-31T02:37:52.543Z,49.71
2023-03-31T02:39:01.477Z,49.67
2023-03-31T02:40:06.445Z,49.72
2023-03-31T02:41:10.508Z,49.72
2023-03-31T02:42:12.916Z,49.60
2023-03-31T02:43:15.114Z,49.66
2023-03-31T02:44:17.989Z,49.65
2023-03-31T02:46:56.966Z,51.10
2023-03-31T02:47:59.512Z,54.14
2023-03-31T02:49:03.986Z,54.55
2023-03-31T02:50:08.386Z,54.42
2023-03-31T02:51:40.287Z,54.29
2023-03-31T02:53:01.149Z,54.96
2023-03-31T02:55:46.801Z,55.30
2023-03-31T02:57:01.784Z,55.72
2023-03-31T02:59:51.437Z,55.12
2023-03-31T03:01:10.111Z,54.68
2023-03-31T03:02:38.277Z,54.47
2023-03-31T03:03:50.568Z,54.20
2023-03-31T03:05:25.447Z,53.64
2023-03-31T03:08:19.176Z,53.22
2023-03-31T03:10:56.816Z,51.65
2023-03-31T03:12:15.224Z,51.54
2023-03-31T03:14:37.981Z,51.13
2023-03-31T03:15:50.636Z,51.16
2023-03-31T03:17:05.525Z,51.21
2023-03-31T03:18:07.670Z,51.27
2023-03-31T03:19:10.329Z,51.13
2023-03-31T03:20:15.422Z,51.14
2023-03-31T03:21:18.079Z,51.29
2023-03-31T03:22:21.090Z,51.34
2023-03-31T03:23:23.252Z,51.42
2023-03-31T03:24:25.457Z,51.36
2023-03-31T03:25:27.751Z,51.39
2023-03-31T03:26:29.925Z,51.39
2023-03-31T03:27:32.580Z,51.38
2023-03-31T03:28:35.002Z,51.23
2023-03-31T03:29:37.071Z,51.39
2023-03-31T03:30:39.907Z,51.29
2023-03-31T03:31:42.714Z,51.29
2023-03-31T03:32:44.970Z,51.36
2023-03-31T03:33:47.234Z,51.31
2023-03-31T03:34:49.407Z,51.29
2023-03-31T03:35:51.842Z,51.16
2023-03-31T03:36:53.933Z,51.05
2023-03-31T03:37:55.892Z,50.94
2023-03-31T03:38:58.337Z,50.75
2023-03-31T03:40:00.515Z,50.48
2023-03-31T03:41:03.113Z,50.59
2023-03-31T03:42:05.437Z,50.59
2023-03-31T03:43:07.870Z,50.56
2023-03-31T03:44:10.061Z,50.60
2023-03-31T03:45:12.207Z,50.67
2023-03-31T03:46:15.141Z,50.53
2023-03-31T03:47:17.280Z,50.58
2023-03-31T03:48:19.773Z,50.35
2023-03-31T03:49:22.487Z,50.41
2023-03-31T03:50:24.725Z,50.12
2023-03-31T03:51:26.731Z,50.24
2023-03-31T03:52:29.021Z,50.16
2023-03-31T03:53:31.176Z,49.89
2023-03-31T03:54:33.345Z,49.91
2023-03-31T03:55:35.425Z,49.97
2023-03-31T03:56:37.684Z,50.06
2023-03-31T03:57:39.747Z,50.10
2023-03-31T03:58:42.277Z,50.16
2023-03-31T03:59:44.358Z,49.96
2023-03-31T04:00:46.470Z,50.01
2023-03-31T04:01:49.104Z,50.12
2023-03-31T04:02:51.180Z,49.96
2023-03-31T04:03:53.419Z,49.90
2023-03-31T04:04:56.747Z,49.94
2023-03-31T04:05:59.156Z,50.00
2023-03-31T04:08:12.414Z,49.89
2023-03-31T04:09:15.094Z,50.29
2023-03-31T04:10:19.341Z,50.30
2023-03-31T04:11:24.066Z,50.47
2023-03-31T04:12:26.894Z,50.32
2023-03-31T04:13:29.589Z,50.27
2023-03-31T04:14:31.566Z,50.35
2023-03-31T04:15:34.071Z,50.40
2023-03-31T04:16:36.084Z,50.38
2023-03-31T04:17:38.346Z,50.41
2023-03-31T04:18:42.078Z,50.46
2023-03-31T04:19:44.689Z,50.55
2023-03-31T04:20:46.869Z,50.59
2023-03-31T04:21:49.097Z,50.63
2023-03-31T04:22:51.076Z,50.63
2023-03-31T04:23:55.020Z,50.57
2023-03-31T04:24:57.133Z,50.54
2023-03-31T04:26:01.063Z,50.51
2023-03-31T04:27:03.433Z,50.56
2023-03-31T04:28:06.102Z,50.68
2023-03-31T04:30:40.088Z,50.65
2023-03-31T04:31:43.428Z,50.60
2023-03-31T04:32:46.029Z,50.51
2023-03-31T04:33:48.550Z,50.61
2023-03-31T04:34:51.604Z,50.56
2023-03-31T04:35:54.847Z,50.66
2023-03-31T04:37:00.387Z,50.66
2023-03-31T04:38:02.406Z,50.69
2023-03-31T04:39:04.957Z,50.72
2023-03-31T04:40:09.203Z,50.84
2023-03-31T04:41:11.550Z,50.84
2023-03-31T04:42:13.819Z,51.05
2023-03-31T04:43:19.581Z,51.06
2023-03-31T04:44:22.289Z,51.09
2023-03-31T04:45:24.485Z,51.13
2023-03-31T04:46:26.694Z,51.09
2023-03-31T04:47:28.851Z,51.13
2023-03-31T04:48:32.115Z,51.21
2023-03-31T04:49:34.619Z,51.11
2023-03-31T04:50:37.311Z,51.07
2023-03-31T04:51:39.861Z,51.09
2023-03-31T04:52:42.034Z,51.08
2023-03-31T04:53:44.220Z,51.09
2023-03-31T04:54:46.291Z,51.23
2023-03-31T04:55:49.757Z,51.16
2023-03-31T04:58:03.249Z,51.05
2023-03-31T04:59:05.424Z,51.26
2023-03-31T05:00:10.305Z,51.21
2023-03-31T05:01:12.452Z,51.09
2023-03-31T05:02:14.580Z,50.95
2023-03-31T05:03:17.350Z,50.89
2023-03-31T05:04:19.832Z,50.99
2023-03-31T05:05:22.024Z,50.93
2023-03-31T05:06:24.302Z,50.99
2023-03-31T05:07:27.087Z,51.05
2023-03-31T05:08:29.809Z,51.03
2023-03-31T05:09:33.020Z,50.90
2023-03-31T05:10:36.080Z,50.90
2023-03-31T05:11:38.993Z,50.92
2023-03-31T05:12:41.213Z,50.89
2023-03-31T05:13:43.399Z,50.87
2023-03-31T05:14:45.467Z,50.98
2023-03-31T05:15:48.148Z,50.89
2023-03-31T05:16:50.577Z,50.98
2023-03-31T05:17:53.125Z,50.97
2023-03-31T05:18:55.333Z,51.06
2023-03-31T05:19:57.543Z,51.10
2023-03-31T05:22:18.560Z,51.19
2023-03-31T05:23:21.149Z,51.22
2023-03-31T05:24:23.223Z,51.31
2023-03-31T05:25:25.662Z,51.26
2023-03-31T05:26:28.266Z,51.26
2023-03-31T05:27:30.435Z,51.16
2023-03-31T05:28:32.706Z,51.20
2023-03-31T05:29:34.765Z,51.24
2023-03-31T05:30:36.729Z,51.16
2023-03-31T05:31:39.830Z,51.15
2023-03-31T05:32:43.736Z,51.30
2023-03-31T05:33:46.495Z,51.24
2023-03-31T05:34:50.277Z,51.27
2023-03-31T05:35:52.857Z,51.32
2023-03-31T05:36:55.124Z,51.25
2023-03-31T05:37:57.282Z,51.35
2023-03-31T05:38:59.469Z,51.20
2023-03-31T05:40:01.729Z,51.24
2023-03-31T05:41:05.145Z,51.18
2023-03-31T05:42:07.326Z,51.14
2023-03-31T05:43:09.397Z,51.17
2023-03-31T05:44:12.076Z,51.25
2023-03-31T05:45:14.427Z,51.32
2023-03-31T05:46:16.913Z,51.29
2023-03-31T05:47:19.579Z,51.18
2023-03-31T05:48:21.782Z,51.34
2023-03-31T05:49:24.001Z,51.28
2023-03-31T05:50:26.776Z,51.24
2023-03-31T05:51:28.759Z,51.22
2023-03-31T05:52:30.877Z,51.33
2023-03-31T05:53:33.259Z,51.45
2023-03-31T05:54:36.104Z,51.53
2023-03-31T05:55:38.764Z,51.61
2023-03-31T05:56:40.983Z,51.69
2023-03-31T05:57:43.745Z,51.80
2023-03-31T05:58:46.005Z,51.68
2023-03-31T05:59:48.277Z,51.72
2023-03-31T06:00:51.157Z,51.73
2023-03-31T06:01:53.524Z,51.65
2023-03-31T06:02:55.777Z,51.62
2023-03-31T06:03:57.938Z,51.59
2023-03-31T06:05:01.198Z,51.68
2023-03-31T06:06:05.052Z,51.71
2023-03-31T06:07:07.654Z,51.72
2023-03-31T06:08:09.652Z,51.75
2023-03-31T06:09:12.353Z,51.80
2023-03-31T06:10:14.535Z,51.90
2023-03-31T06:11:19.416Z,51.95
2023-03-31T06:12:22.643Z,52.11
2023-03-31T06:13:24.949Z,52.17
2023-03-31T06:14:27.629Z,52.25
2023-03-31T06:15:29.820Z,52.37
2023-03-31T06:16:32.273Z,52.47
2023-03-31T06:17:36.846Z,52.46
2023-03-31T06:18:39.928Z,52.47
2023-03-31T06:19:42.238Z,52.57
2023-03-31T06:20:44.497Z,52.69
2023-03-31T06:21:46.635Z,52.73
2023-03-31T06:22:49.289Z,52.79
2023-03-31T06:23:51.548Z,52.81
2023-03-31T06:24:54.777Z,52.76
2023-03-31T06:27:10.446Z,52.90
2023-03-31T06:28:12.544Z,53.06
2023-03-31T06:29:15.201Z,53.12
2023-03-31T06:30:18.218Z,53.04
2023-03-31T06:31:23.697Z,53.04
2023-03-31T06:32:25.862Z,53.00
2023-03-31T06:33:28.319Z,53.01
2023-03-31T06:34:30.368Z,52.98
2023-03-31T06:35:32.527Z,52.96
2023-03-31T06:36:34.779Z,53.00
2023-03-31T06:37:36.871Z,52.83
2023-03-31T06:38:39.023Z,52.92
2023-03-31T06:39:41.208Z,52.93
2023-03-31T06:40:43.496Z,52.96
2023-03-31T06:41:45.604Z,52.92
2023-03-31T06:42:49.721Z,53.08
2023-03-31T06:43:52.409Z,53.13
2023-03-31T06:44:55.144Z,53.13
2023-03-31T06:45:57.465Z,53.14
2023-03-31T06:46:59.665Z,53.14
2023-03-31T06:48:01.937Z,53.07
2023-03-31T06:49:04.204Z,53.20
2023-03-31T06:50:09.804Z,53.17
2023-03-31T06:51:12.343Z,53.15
2023-03-31T06:52:14.820Z,53.14
2023-03-31T06:53:16.986Z,53.21
2023-03-31T06:54:19.199Z,53.17
2023-03-31T06:55:21.359Z,53.11
2023-03-31T06:56:23.530Z,53.00
2023-03-31T06:58:44.152Z,53.07
2023-03-31T06:59:46.614Z,53.20
2023-03-31T07:00:49.486Z,53.20
2023-03-31T07:01:51.743Z,53.15
2023-03-31T07:02:54.887Z,53.16
2023-03-31T07:03:59.566Z,53.14
2023-03-31T07:05:01.725Z,53.15
2023-03-31T07:06:06.501Z,53.25
2023-03-31T07:07:08.653Z,53.21
2023-03-31T07:08:10.824Z,53.38
2023-03-31T07:09:13.475Z,53.32
2023-03-31T07:10:16.740Z,53.33
2023-03-31T07:11:21.072Z,53.41
2023-03-31T07:12:23.948Z,53.46
2023-03-31T07:13:26.996Z,53.43
2023-03-31T07:14:29.569Z,53.57
2023-03-31T07:15:32.793Z,53.67
2023-03-31T07:16:35.561Z,53.61
2023-03-31T07:17:38.021Z,53.59
2023-03-31T07:18:41.413Z,53.62
2023-03-31T07:19:45.638Z,53.52
2023-03-31T07:20:48.740Z,53.58
2023-03-31T07:21:50.975Z,53.58
2023-03-31T07:22:53.082Z,53.65
2023-03-31T07:23:58.084Z,53.60
2023-03-31T07:25:00.739Z,53.57
2023-03-31T07:26:03.465Z,53.60
2023-03-31T07:27:05.810Z,53.61
2023-03-31T07:28:08.286Z,53.64
2023-03-31T07:29:12.227Z,53.66
2023-03-31T07:30:17.959Z,53.63
2023-03-31T07:31:20.720Z,53.54
2023-03-31T07:32:28.468Z,53.50
2023-03-31T07:33:32.816Z,53.45
2023-03-31T07:34:37.759Z,53.41
2023-03-31T07:35:42.088Z,53.40
2023-03-31T07:36:44.723Z,53.45
2023-03-31T07:37:49.277Z,53.49
2023-03-31T07:38:55.580Z,53.55
2023-03-31T07:40:02.053Z,53.63
2023-03-31T07:41:09.020Z,53.63
2023-03-31T07:42:09.122Z,53.63
2023-03-31T07:43:11.800Z,53.72
2023-03-31T07:44:16.348Z,53.77
2023-03-31T07:45:23.443Z,53.85
2023-03-31T07:46:29.411Z,53.54
2023-03-31T07:47:31.972Z,53.35
2023-03-31T07:48:38.242Z,53.11
2023-03-31T07:49:42.768Z,52.89
2023-03-31T07:50:50.370Z,52.73
2023-03-31T07:51:54.492Z,52.83
2023-03-31T07:52:57.913Z,52.60
2023-03-31T07:54:03.703Z,52.54
2023-03-31T07:55:07.249Z,52.48
2023-03-31T07:56:09.677Z,52.61
2023-03-31T07:57:13.754Z,52.52
2023-03-31T07:58:20.696Z,52.53
2023-03-31T07:59:24.952Z,52.64
2023-03-31T08:00:30.598Z,52.56
2023-03-31T08:01:32.692Z,52.60
2023-03-31T08:02:36.450Z,52.61
2023-03-31T08:03:38.932Z,52.61
2023-03-31T08:04:46.401Z,52.60
2023-03-31T08:07:05.797Z,52.51
2023-03-31T08:08:24.694Z,52.66
2023-03-31T08:09:26.793Z,52.43
2023-03-31T08:10:30.322Z,52.33
2023-03-31T08:11:33.904Z,52.16
2023-03-31T08:12:36.017Z,51.98
2023-03-31T08:13:38.766Z,51.96
2023-03-31T08:14:48.537Z,52.04
2023-03-31T08:15:53.905Z,52.22
2023-03-31T08:16:56.261Z,52.22
2023-03-31T08:17:59.970Z,52.18
2023-03-31T08:19:04.742Z,52.19
2023-03-31T08:20:11.209Z,52.11
2023-03-31T08:21:16.343Z,51.92
2023-03-31T08:22:18.591Z,51.89
2023-03-31T08:23:22.398Z,51.70
2023-03-31T08:24:25.371Z,51.71
2023-03-31T08:25:30.979Z,51.65
2023-03-31T08:26:33.884Z,51.39
2023-03-31T08:27:41.069Z,50.90
2023-03-31T08:28:45.587Z,50.67
2023-03-31T08:29:47.860Z,50.81
2023-03-31T08:30:55.332Z,50.88
2023-03-31T08:31:59.336Z,50.81
2023-03-31T08:33:01.580Z,50.81
2023-03-31T08:34:06.034Z,50.85
2023-03-31T08:35:11.527Z,50.53
2023-03-31T08:36:17.227Z,50.27
2023-03-31T08:37:19.668Z,50.16
2023-03-31T08:38:22.351Z,50.09
2023-03-31T08:39:26.907Z,50.05
2023-03-31T08:40:34.307Z,50.20
2023-03-31T08:41:57.952Z,50.10
2023-03-31T08:43:09.638Z,50.19
2023-03-31T08:44:22.354Z,50.04
2023-03-31T08:45:29.185Z,50.06
2023-03-31T08:46:32.729Z,49.93
2023-03-31T08:47:37.908Z,49.99
2023-03-31T08:48:43.762Z,50.09
2023-03-31T08:51:08.941Z,50.47
2023-03-31T08:52:17.884Z,50.66
2023-03-31T08:54:45.638Z,50.81
2023-03-31T08:55:56.251Z,51.02
2023-03-31T08:56:59.284Z,51.16
2023-03-31T08:59:27.399Z,51.22
2023-03-31T09:00:33.205Z,51.47
2023-03-31T09:01:58.288Z,51.49
2023-03-31T09:03:07.071Z,51.69
2023-03-31T09:04:30.821Z,51.46
2023-03-31T09:05:58.907Z,51.33
2023-03-31T09:07:17.470Z,51.37
2023-03-31T09:08:38.335Z,51.47
2023-03-31T09:10:16.530Z,51.50
2023-03-31T09:11:53.112Z,51.70
2023-03-31T09:12:58.997Z,51.59
2023-03-31T09:14:32.466Z,51.72
2023-03-31T09:15:40.179Z,51.72
2023-03-31T09:16:46.043Z,51.80
2023-03-31T09:17:49.633Z,51.89
2023-03-31T09:18:54.931Z,51.80
2023-03-31T09:20:06.723Z,51.66
2023-03-31T09:21:19.745Z,51.51
2023-03-31T09:22:26.709Z,51.39
2023-03-31T09:23:33.003Z,51.43
2023-03-31T09:25:58.026Z,51.54
2023-03-31T09:27:07.137Z,51.76
2023-03-31T09:29:48.455Z,51.81
2023-03-31T09:30:52.219Z,51.68
2023-03-31T09:31:54.775Z,51.74
2023-03-31T09:34:27.067Z,51.90
2023-03-31T09:35:32.658Z,51.81
2023-03-31T09:36:35.136Z,51.88
2023-03-31T09:37:37.331Z,51.89
2023-03-31T09:38:42.380Z,51.88
2023-03-31T09:39:48.306Z,51.71
2023-03-31T09:40:50.544Z,51.65
2023-03-31T09:41:53.965Z,51.59
2023-03-31T09:44:40.799Z,51.60
2023-03-31T09:45:54.746Z,51.73
2023-03-31T09:46:51.435Z,51.75
2023-03-31T09:47:56.494Z,51.63
2023-03-31T09:49:19.105Z,51.40
2023-03-31T09:50:25.149Z,51.08
2023-03-31T09:51:35.549Z,50.58
2023-03-31T09:52:41.861Z,50.57
2023-03-31T09:53:50.760Z,50.59
2023-03-31T09:55:03.272Z,50.55
2023-03-31T09:56:10.702Z,50.37
2023-03-31T09:57:15.737Z,50.05
2023-03-31T09:58:19.172Z,49.12
2023-03-31T09:59:35.377Z,48.29
2023-03-31T10:02:04.490Z,47.51
2023-03-31T10:03:08.053Z,47.29
2023-03-31T10:05:34.702Z,47.33
2023-03-31T10:06:42.864Z,47.12
2023-03-31T10:07:47.912Z,47.23
2023-03-31T10:09:09.005Z,47.19
2023-03-31T10:10:29.077Z,46.19
2023-03-31T10:11:32.042Z,45.98
2023-03-31T10:12:37.075Z,46.02
2023-03-31T10:13:54.531Z,45.76
2023-03-31T10:16:52.196Z,45.21
2023-03-31T10:17:58.438Z,44.86
2023-03-31T10:19:24.140Z,44.97
2023-03-31T10:23:36.261Z,44.23
2023-03-31T10:24:41.029Z,44.46
2023-03-31T10:25:47.879Z,44.36
2023-03-31T10:26:56.748Z,44.42
2023-03-31T10:28:02.117Z,43.73
2023-03-31T10:29:13.605Z,43.72
2023-03-31T10:30:19.704Z,43.88
2023-03-31T10:31:29.930Z,44.03
2023-03-31T10:32:43.415Z,44.20
2023-03-31T10:33:51.213Z,44.43
2023-03-31T10:34:57.553Z,44.64
2023-03-31T10:36:11.707Z,44.82
2023-03-31T10:37:21.234Z,45.02
2023-03-31T10:38:35.236Z,45.30
2023-03-31T10:39:40.321Z,45.29
2023-03-31T10:42:00.794Z,45.01
2023-03-31T10:44:36.996Z,44.90
2023-03-31T10:45:47.937Z,44.58
2023-03-31T10:46:52.112Z,44.71
2023-03-31T10:49:21.513Z,45.21
2023-03-31T10:51:59.799Z,45.62
2023-03-31T10:53:08.931Z,45.64
2023-03-31T10:54:11.984Z,45.83
2023-03-31T10:56:40.296Z,45.88
2023-03-31T10:57:57.487Z,46.09
2023-03-31T11:02:25.429Z,45.23
2023-03-31T11:03:37.814Z,44.64
2023-03-31T11:05:18.396Z,44.65
2023-03-31T11:06:39.584Z,44.24
2023-03-31T11:07:49.337Z,43.82
2023-03-31T11:08:55.638Z,43.39
2023-03-31T11:10:25.863Z,43.74
2023-03-31T11:11:40.676Z,43.95
2023-03-31T11:13:05.226Z,44.33
2023-03-31T11:15:36.478Z,43.91
2023-03-31T11:16:51.838Z,44.19
2023-03-31T11:18:12.645Z,44.24
2023-03-31T11:19:35.637Z,44.35
2023-03-31T11:22:21.874Z,44.01
2023-03-31T11:23:41.409Z,44.23
2023-03-31T11:24:56.610Z,44.11
2023-03-31T11:26:20.678Z,44.33
2023-03-31T11:27:32.587Z,44.40
2023-03-31T11:28:42.482Z,44.59
2023-03-31T11:29:48.168Z,44.35
2023-03-31T11:30:57.776Z,44.44
2023-03-31T11:32:31.335Z,44.43
2023-03-31T11:33:49.242Z,44.55
2023-03-31T11:35:14.973Z,44.88
2023-03-31T11:38:10.404Z,45.20
2023-03-31T11:39:22.552Z,45.37
2023-03-31T11:40:48.146Z,45.58
2023-03-31T11:41:53.967Z,45.66
2023-03-31T11:43:19.360Z,45.49
2023-03-31T11:44:23.348Z,45.37
2023-03-31T11:45:34.488Z,45.56
2023-03-31T11:46:55.233Z,45.54
2023-03-31T11:48:02.341Z,45.65
2023-03-31T11:49:32.245Z,45.82
2023-03-31T11:50:36.795Z,45.99
2023-03-31T11:53:25.765Z,46.47
2023-03-31T11:54:40.410Z,46.59
2023-03-31T11:55:47.500Z,46.65
2023-03-31T11:56:56.057Z,46.77
2023-03-31T12:00:53.180Z,47.26
2023-03-31T12:02:09.731Z,47.06
2023-03-31T12:03:34.948Z,46.67
2023-03-31T12:04:40.531Z,46.66
2023-03-31T12:05:46.129Z,46.20
2023-03-31T12:06:49.558Z,46.13
2023-03-31T12:08:03.736Z,46.35
2023-03-31T12:09:40.333Z,46.74
2023-03-31T12:12:22.694Z,47.41
2023-03-31T12:13:33.960Z,47.53
2023-03-31T12:16:46.886Z,47.32
2023-03-31T12:18:05.142Z,47.58
2023-03-31T12:19:17.585Z,47.72
2023-03-31T12:22:12.107Z,47.92
2023-03-31T12:24:35.653Z,48.34
2023-03-31T12:25:52.322Z,48.48
2023-03-31T12:28:26.487Z,48.57
2023-03-31T12:29:38.001Z,48.37
2023-03-31T12:30:42.537Z,48.58
2023-03-31T12:31:47.357Z,48.27
2023-03-31T12:34:14.752Z,48.26
2023-03-31T12:38:34.187Z,48.48
2023-03-31T12:41:47.226Z,48.38
2023-03-31T12:43:02.354Z,47.88
2023-03-31T12:45:50.969Z,45.82
2023-03-31T12:47:17.589Z,45.19
2023-03-31T12:48:34.959Z,45.01
2023-03-31T12:50:14.507Z,45.10
2023-03-31T12:51:26.034Z,45.34
2023-03-31T12:53:02.535Z,44.89
2023-03-31T12:55:58.725Z,44.83
2023-03-31T12:57:10.445Z,44.57
2023-03-31T13:01:18.600Z,44.20
2023-03-31T13:02:28.753Z,43.99
2023-03-31T13:05:39.150Z,44.43
2023-03-31T13:06:50.631Z,44.50
2023-03-31T13:07:52.761Z,44.55
2023-03-31T13:09:08.799Z,44.72
2023-03-31T13:10:27.424Z,44.99
2023-03-31T13:13:03.934Z,44.95
2023-03-31T13:14:26.211Z,44.98
2023-03-31T13:15:34.739Z,47.21
2023-03-31T13:16:48.226Z,49.18
2023-03-31T13:18:02.870Z,49.14
2023-03-31T13:21:59.532Z,49.61
2023-03-31T13:23:05.181Z,49.91
2023-03-31T13:24:08.494Z,49.22
2023-03-31T13:25:31.532Z,48.54
2023-03-31T13:26:37.220Z,47.74
2023-03-31T13:29:15.572Z,46.92
2023-03-31T13:32:08.060Z,45.59
2023-03-31T13:33:18.462Z,45.54
2023-03-31T13:34:23.064Z,45.98
2023-03-31T13:35:31.492Z,45.71
2023-03-31T13:36:44.651Z,45.38
2023-03-31T13:38:25.972Z,45.38
2023-03-31T13:40:02.542Z,45.27
2023-03-31T13:41:12.591Z,45.30
2023-03-31T13:42:44.240Z,44.91
2023-03-31T13:44:12.483Z,44.68
2023-03-31T13:45:27.894Z,44.59
2023-03-31T13:48:03.999Z,44.71
2023-03-31T13:51:02.515Z,44.63
2023-03-31T13:52:33.681Z,44.91
2023-03-31T13:54:13.299Z,44.54
2023-03-31T13:57:02.375Z,43.45
2023-03-31T13:58:33.678Z,43.47
2023-03-31T13:59:44.923Z,43.28
2023-03-31T14:02:54.819Z,43.63
2023-03-31T14:06:59.020Z,43.88
2023-03-31T14:08:12.092Z,43.80
2023-03-31T14:10:41.681Z,44.12
2023-03-31T14:11:43.887Z,44.09
2023-03-31T14:12:48.907Z,44.22
2023-03-31T14:14:22.312Z,44.25
2023-03-31T14:15:24.455Z,44.35
2023-03-31T14:16:28.440Z,44.45
2023-03-31T14:17:36.626Z,44.49
2023-03-31T14:18:44.700Z,44.67
2023-03-31T14:21:25.962Z,44.70
2023-03-31T14:24:02.336Z,44.72
2023-03-31T14:25:34.369Z,44.63
2023-03-31T14:26:43.130Z,44.43
2023-03-31T14:28:19.431Z,44.44
2023-03-31T14:29:49.786Z,44.64
2023-03-31T14:31:25.821Z,44.80
2023-03-31T14:32:34.481Z,45.08
2023-03-31T14:38:22.372Z,46.30
2023-03-31T14:39:33.888Z,46.60
2023-03-31T14:45:01.289Z,48.54
2023-03-31T14:46:34.285Z,48.88
2023-03-31T14:47:43.933Z,49.15
2023-03-31T14:50:22.521Z,49.52
2023-03-31T14:53:20.769Z,50.27
2023-03-31T14:54:24.029Z,50.55
2023-03-31T14:55:35.842Z,50.71
2023-03-31T14:57:52.617Z,51.20
2023-03-31T14:58:57.825Z,51.36
2023-03-31T15:00:05.562Z,51.69
2023-03-31T15:01:10.097Z,51.64
2023-03-31T15:02:19.424Z,51.74
2023-03-31T15:03:21.847Z,52.29
2023-03-31T15:04:41.908Z,52.30
2023-03-31T15:05:48.984Z,52.57
2023-03-31T15:06:57.774Z,52.85
2023-03-31T15:08:06.518Z,52.90
2023-03-31T15:09:13.865Z,53.11
2023-03-31T15:10:21.344Z,53.34
2023-03-31T15:11:30.776Z,53.55
2023-03-31T15:12:34.328Z,53.79
2023-03-31T15:15:08.931Z,54.18
2023-03-31T15:16:36.691Z,56.11
2023-03-31T15:17:41.175Z,57.62
2023-03-31T15:18:44.136Z,57.47
2023-03-31T15:19:48.179Z,56.92
2023-03-31T15:20:55.024Z,56.53
2023-03-31T15:22:16.635Z,56.07
2023-03-31T15:23:27.928Z,56.33
2023-03-31T15:24:31.002Z,56.03
2023-03-31T15:25:36.228Z,55.74
2023-03-31T15:26:54.751Z,55.58
2023-03-31T15:29:40.723Z,55.96
2023-03-31T15:30:44.257Z,56.23
2023-03-31T15:31:49.746Z,56.00
2023-03-31T15:33:01.471Z,56.02
2023-03-31T15:34:17.785Z,56.54
2023-03-31T15:35:25.520Z,56.34
2023-03-31T15:36:30.544Z,56.68
2023-03-31T15:37:43.545Z,56.76
2023-03-31T15:38:45.807Z,57.00
2023-03-31T15:39:50.798Z,57.32
2023-03-31T15:40:56.417Z,57.62
2023-03-31T15:42:01.159Z,57.67
2023-03-31T15:43:25.607Z,58.00
2023-03-31T15:45:51.113Z,58.14
2023-03-31T15:47:02.995Z,58.35
2023-03-31T15:48:10.150Z,58.06
2023-03-31T15:49:21.304Z,58.16
2023-03-31T15:50:27.980Z,58.51
2023-03-31T15:52:56.653Z,58.25
2023-03-31T15:54:02.870Z,58.56
2023-03-31T15:55:29.304Z,58.76
2023-03-31T15:56:45.086Z,58.84
2023-03-31T15:57:57.675Z,58.90
2023-03-31T15:59:02.223Z,59.14
2023-03-31T16:00:08.098Z,59.14
2023-03-31T16:01:17.627Z,59.48
2023-03-31T16:02:24.973Z,59.52
2023-03-31T16:03:35.101Z,59.63
2023-03-31T16:04:37.509Z,59.80
2023-03-31T16:08:44.594Z,60.43
2023-03-31T16:09:56.177Z,60.62
2023-03-31T16:11:07.894Z,60.73
2023-03-31T16:13:48.170Z,60.71
2023-03-31T16:15:06.719Z,60.88
2023-03-31T16:16:15.338Z,61.01
2023-03-31T16:18:40.828Z,61.09
2023-03-31T16:19:51.605Z,61.28
2023-03-31T16:21:00.099Z,61.28
2023-03-31T16:22:04.138Z,61.23
2023-03-31T16:23:24.896Z,61.20
2023-03-31T16:24:36.704Z,61.29
2023-03-31T16:25:40.862Z,61.39
2023-03-31T16:26:46.161Z,61.46
2023-03-31T16:29:22.028Z,61.61
2023-03-31T16:30:42.279Z,61.94
2023-03-31T16:31:46.430Z,61.97
2023-03-31T16:33:03.902Z,62.01
2023-03-31T16:34:09.542Z,62.21
2023-03-31T16:35:20.951Z,62.38
2023-03-31T16:36:23.119Z,62.63
2023-03-31T16:37:26.502Z,62.90
2023-03-31T16:38:29.569Z,63.00
2023-03-31T16:39:32.211Z,63.05
2023-03-31T16:41:47.493Z,63.31
2023-03-31T16:42:54.174Z,63.41
2023-03-31T16:43:58.017Z,63.42
2023-03-31T16:45:13.602Z,63.28
2023-03-31T16:46:06.808Z,63.17
2023-03-31T16:47:10.528Z,63.14
2023-03-31T16:48:18.153Z,63.02
2023-03-31T16:49:21.091Z,62.99
2023-03-31T16:50:23.089Z,63.02
2023-03-31T16:51:26.424Z,63.08
2023-03-31T16:52:29.005Z,63.13
2023-03-31T16:53:34.173Z,63.07
2023-03-31T16:54:48.466Z,63.04
2023-03-31T16:55:50.965Z,63.12
2023-03-31T16:56:53.705Z,63.16
2023-03-31T16:57:56.286Z,63.11